Aviation Digital Data Service (ADDS)

Output produced by TAFs form (1434 UTC 24 July 2017)
found at http://www.aviationweather.gov/adds/tafs/
 
METAR text: RJSY 241200Z VRB02KT 9999 FEW010 BKN015 BKN025 23/22 Q1002
Conditions at: RJSY (SHONAI , JP) observed 1200 UTC 24 July 2017
Temperature: 23.0°C (73°F)
Dewpoint: 22.0°C (72°F) [RH = 94%]
Pressure (altimeter): 29.59 inches Hg (1002.0 mb)
Winds: variable direction winds at 2 MPH (2 knots; 1.0 m/s)
Visibility: 6 or more miles (10+ km)
Ceiling: 1500 feet AGL
Clouds: few clouds at 1000 feet AGL
broken clouds at 1500 feet AGL
broken clouds at 2500 feet AGL
Weather: no significant weather observed at this time